KCRW/CRW METAR and TAF weather

Enter ICAO airport designator
Station Type Date Time Source
KCRW METAR 2020/01/19 16:54 UTC NOAA

KCRW 191654Z 30015G22KT 10SM SCT033 OVC049 M01/M09 A3011 RMK AO2 SNE1555 SLP202 OVC V BKN P0000 T10111089


Station Type Date Time Source
KCRW Decoded METAR 2020/01/19 16:54 UTC NOAA

YEAGER AIRPORT, WV, United States (KCRW) 38-22N 081-36W 309M
Jan 19, 2020 - 11:54 AM EST / 2020.01.19 1654 UTC
Wind: from the WNW (300 degrees) at 17 MPH (15 KT) gusting to 25 MPH (22 KT):0
Visibility: 10 mile(s):0
Sky conditions: overcast
Precipitation last hour: A trace
Temperature: 30.0 F (-1.1 C)
Windchill: 17 F (-8 C):1
Dew Point: 16.0 F (-8.9 C)
Relative Humidity: 55%
Pressure (altimeter): 30.11 in. Hg (1019 hPa)
ob: KCRW 191654Z 30015G22KT 10SM SCT033 OVC049 M01/M09 A3011 RMK AO2 SNE1555 SLP202 OVC V BKN P0000 T10111089
cycle: 17

Station Type Date Time Source
KCRW TAF 2020/01/19 15:06 UTC NOAA

TAF
AMD KCRW 191503Z 1915/2012 28011G18KT P6SM SCT025 OVC040
TEMPO 1915/1917 5SM -SHSN OVC028
FM192200 29010KT P6SM BKN035

Example: see airport list